createdAt,value
2022-09-03T00:00:03.583Z,102210.97
2022-09-03T00:02:39.905Z,102220.69
2022-09-03T00:05:14.350Z,102218.09
2022-09-03T00:07:53.185Z,102214.81
2022-09-03T00:10:28.894Z,102214.41
2022-09-03T00:13:00.798Z,102215.31
2022-09-03T00:15:28.914Z,102210.44
2022-09-03T00:18:08.118Z,102208.50
2022-09-03T00:20:42.588Z,102206.94
2022-09-03T00:23:16.121Z,102208.00
2022-09-03T00:25:47.671Z,102203.97
2022-09-03T00:28:24.457Z,102204.34
2022-09-03T00:30:59.380Z,102206.84
2022-09-03T00:33:30.203Z,102203.34
2022-09-03T00:36:07.033Z,102204.59
2022-09-03T00:38:33.849Z,102211.41
2022-09-03T00:41:31.617Z,102214.53
2022-09-03T00:44:12.203Z,102219.19
2022-09-03T00:46:49.406Z,102218.56
2022-09-03T00:49:33.302Z,102223.97
2022-09-03T00:52:24.879Z,102224.75
2022-09-03T00:55:12.991Z,102223.91
2022-09-03T00:57:52.336Z,102212.03
2022-09-03T01:00:21.116Z,102227.03
2022-09-03T01:03:02.597Z,102222.91
2022-09-03T01:05:47.770Z,102225.50
2022-09-03T01:08:29.041Z,102226.53
2022-09-03T01:11:24.711Z,102224.16
2022-09-03T01:14:22.922Z,102228.84
2022-09-03T01:17:03.398Z,102221.69
2022-09-03T01:19:45.898Z,102224.59
2022-09-03T01:22:35.708Z,102220.75
2022-09-03T01:25:32.254Z,102217.25
2022-09-03T01:28:25.796Z,102220.03
2022-09-03T01:31:26.857Z,102227.28
2022-09-03T01:34:11.525Z,102222.63
2022-09-03T01:36:55.985Z,102218.66
2022-09-03T01:39:32.176Z,102219.16
2022-09-03T01:42:20.808Z,102234.16
2022-09-03T01:45:21.613Z,102225.56
2022-09-03T01:48:04.808Z,102229.34
2022-09-03T01:51:11.096Z,102229.41
2022-09-03T01:54:11.123Z,102229.22
2022-09-03T01:57:08.817Z,102240.47
2022-09-03T02:00:04.239Z,102239.06
2022-09-03T02:02:31.785Z,102232.22
2022-09-03T02:05:08.105Z,102225.91
2022-09-03T02:07:46.767Z,102221.81
2022-09-03T02:10:16.788Z,102224.41
2022-09-03T02:12:51.857Z,102227.47
2022-09-03T02:15:22.264Z,102221.56
2022-09-03T02:17:53.051Z,102212.94
2022-09-03T02:20:22.404Z,102216.91
2022-09-03T02:22:49.834Z,102215.50
2022-09-03T02:25:20.705Z,102217.66
2022-09-03T02:27:49.441Z,102221.31
2022-09-03T02:30:16.740Z,102223.66
2022-09-03T02:32:43.434Z,102222.28
2022-09-03T02:35:10.224Z,102219.50
2022-09-03T02:37:36.827Z,102215.25
2022-09-03T02:40:08.919Z,102221.72
2022-09-03T02:42:35.867Z,102224.81
2022-09-03T02:45:24.134Z,102218.09
2022-09-03T02:47:55.068Z,102221.00
2022-09-03T02:50:21.695Z,102226.16
2022-09-03T02:52:48.272Z,102218.91
2022-09-03T02:55:15.397Z,102223.97
2022-09-03T02:57:42.079Z,102225.28
2022-09-03T03:00:09.495Z,102231.84
2022-09-03T03:02:36.116Z,102232.28
2022-09-03T03:05:02.868Z,102240.66
2022-09-03T03:07:36.908Z,102231.47
2022-09-03T03:10:05.116Z,102240.25
2022-09-03T03:12:31.715Z,102237.66
2022-09-03T03:14:58.399Z,102236.13
2022-09-03T03:17:24.985Z,102228.56
2022-09-03T03:19:52.038Z,102225.84
2022-09-03T03:22:18.616Z,102232.06
2022-09-03T03:24:45.434Z,102239.81
2022-09-03T03:27:13.313Z,102223.78
2022-09-03T03:29:40.439Z,102234.81
2022-09-03T03:32:07.050Z,102231.44
2022-09-03T03:34:33.590Z,102230.94
2022-09-03T03:37:00.258Z,102233.22
2022-09-03T03:39:26.871Z,102233.69
2022-09-03T03:41:53.491Z,102236.38
2022-09-03T03:44:20.391Z,102242.06
2022-09-03T03:46:47.031Z,102240.94
2022-09-03T03:49:13.787Z,102240.84
2022-09-03T03:51:40.950Z,102246.03
2022-09-03T03:54:07.519Z,102245.28
2022-09-03T03:56:34.914Z,102240.53
2022-09-03T03:59:02.127Z,102237.16
2022-09-03T04:01:29.755Z,102234.09
2022-09-03T04:03:57.687Z,102237.88
2022-09-03T04:06:24.720Z,102238.16
2022-09-03T04:08:51.483Z,102241.44
2022-09-03T04:11:20.600Z,102244.34
2022-09-03T04:13:48.732Z,102239.19
2022-09-03T04:16:18.633Z,102238.16
2022-09-03T04:18:45.581Z,102240.44
2022-09-03T04:21:14.621Z,102236.31
2022-09-03T04:23:43.716Z,102245.72
2022-09-03T04:26:12.359Z,102239.00
2022-09-03T04:28:39.192Z,102252.75
2022-09-03T04:31:09.017Z,102241.47
2022-09-03T04:33:38.206Z,102238.16
2022-09-03T04:36:06.571Z,102233.94
2022-09-03T04:38:34.623Z,102228.56
2022-09-03T04:41:01.703Z,102231.88
2022-09-03T04:43:29.153Z,102234.03
2022-09-03T04:45:59.996Z,102231.56
2022-09-03T04:48:31.065Z,102243.06
2022-09-03T04:51:10.156Z,102242.69
2022-09-03T04:53:39.193Z,102245.91
2022-09-03T04:56:20.341Z,102242.91
2022-09-03T04:58:49.173Z,102243.53
2022-09-03T05:01:18.868Z,102254.47
2022-09-03T05:03:45.853Z,102249.38
2022-09-03T05:06:13.937Z,102252.13
2022-09-03T05:08:40.563Z,102250.66
2022-09-03T05:11:07.855Z,102243.53
2022-09-03T05:13:37.104Z,102243.03
2022-09-03T05:16:08.873Z,102248.00
2022-09-03T05:18:36.493Z,102243.59
2022-09-03T05:21:08.527Z,102240.56
2022-09-03T05:23:41.878Z,102248.03
2022-09-03T05:26:12.507Z,102245.47
2022-09-03T05:28:41.341Z,102250.63
2022-09-03T05:31:10.956Z,102250.50
2022-09-03T05:33:40.187Z,102245.53
2022-09-03T05:36:16.135Z,102264.06
2022-09-03T05:38:43.398Z,102260.03
2022-09-03T05:41:12.669Z,102261.88
2022-09-03T05:43:39.886Z,102266.13
2022-09-03T05:46:09.399Z,102264.25
2022-09-03T05:48:37.755Z,102265.22
2022-09-03T05:51:09.945Z,102269.22
2022-09-03T05:53:39.173Z,102265.53
2022-09-03T05:56:10.950Z,102265.53
2022-09-03T05:58:41.380Z,102267.41
2022-09-03T06:01:20.123Z,102260.38
2022-09-03T06:03:52.979Z,102263.69
2022-09-03T06:06:24.172Z,102268.03
2022-09-03T06:08:51.714Z,102267.84
2022-09-03T06:11:18.357Z,102273.72
2022-09-03T06:13:45.068Z,102287.78
2022-09-03T06:16:11.796Z,102284.06
2022-09-03T06:18:38.663Z,102289.22
2022-09-03T06:21:07.345Z,102284.81
2022-09-03T06:23:36.274Z,102289.81
2022-09-03T06:26:08.763Z,102285.16
2022-09-03T06:28:38.152Z,102271.53
2022-09-03T06:31:07.369Z,102271.00
2022-09-03T06:33:35.885Z,102280.94
2022-09-03T06:36:08.662Z,102295.16
2022-09-03T06:38:36.922Z,102295.50
2022-09-03T06:41:09.462Z,102298.56
2022-09-03T06:43:41.455Z,102295.84
2022-09-03T06:46:11.141Z,102294.81
2022-09-03T06:48:38.943Z,102292.06
2022-09-03T06:51:14.542Z,102293.69
2022-09-03T06:53:44.331Z,102297.84
2022-09-03T06:56:13.436Z,102291.94
2022-09-03T06:58:45.750Z,102294.44
2022-09-03T07:01:19.386Z,102294.69
2022-09-03T07:03:48.631Z,102291.34
2022-09-03T07:06:17.696Z,102283.91
2022-09-03T07:08:46.450Z,102280.63
2022-09-03T07:11:19.706Z,102267.13
2022-09-03T07:13:48.635Z,102280.47
2022-09-03T07:16:23.929Z,102286.69
2022-09-03T07:18:51.377Z,102291.59
2022-09-03T07:21:20.260Z,102289.06
2022-09-03T07:23:48.033Z,102287.41
2022-09-03T07:26:17.396Z,102300.25
2022-09-03T07:28:46.069Z,102309.00
2022-09-03T07:31:26.111Z,102310.97
2022-09-03T07:33:57.188Z,102306.38
2022-09-03T07:36:25.640Z,102313.84
2022-09-03T07:38:56.850Z,102310.97
2022-09-03T07:41:28.381Z,102312.53
2022-09-03T07:43:57.311Z,102318.44
2022-09-03T07:46:26.686Z,102312.53
2022-09-03T07:48:55.647Z,102316.75
2022-09-03T07:51:31.066Z,102317.41
2022-09-03T07:54:01.545Z,102313.91
2022-09-03T07:56:31.287Z,102316.09
2022-09-03T07:58:59.335Z,102315.72
2022-09-03T08:01:37.230Z,102308.69
2022-09-03T08:04:09.515Z,102323.41
2022-09-03T08:06:38.021Z,102323.16
2022-09-03T08:09:09.974Z,102326.25
2022-09-03T08:11:38.902Z,102334.00
2022-09-03T08:14:08.265Z,102327.94
2022-09-03T08:16:41.849Z,102328.94
2022-09-03T08:19:09.047Z,102330.69
2022-09-03T08:21:35.817Z,102328.31
2022-09-03T08:24:03.087Z,102329.34
2022-09-03T08:26:32.191Z,102329.97
2022-09-03T08:28:59.889Z,102328.50
2022-09-03T08:31:28.131Z,102332.56
2022-09-03T08:33:56.744Z,102339.81
2022-09-03T08:36:25.497Z,102330.31
2022-09-03T08:38:55.129Z,102333.47
2022-09-03T08:41:59.303Z,102336.03
2022-09-03T08:44:50.278Z,102338.97
2022-09-03T08:47:23.668Z,102333.28
2022-09-03T08:50:01.505Z,102332.91
2022-09-03T08:52:39.011Z,102329.16
2022-09-03T08:55:33.331Z,102331.22
2022-09-03T08:58:06.837Z,102323.63
2022-09-03T09:01:01.713Z,102336.59
2022-09-03T09:03:35.582Z,102342.16
2022-09-03T09:06:21.374Z,102345.75
2022-09-03T09:09:18.939Z,102337.72
2022-09-03T09:11:54.588Z,102349.38
2022-09-03T09:14:39.483Z,102335.16
2022-09-03T09:17:31.316Z,102334.31
2022-09-03T09:20:03.668Z,102334.84
2022-09-03T09:22:41.033Z,102331.81
2022-09-03T09:25:16.536Z,102334.31
2022-09-03T09:27:55.216Z,102333.38
2022-09-03T09:30:22.039Z,102334.13
2022-09-03T09:32:48.662Z,102339.56
2022-09-03T09:35:18.506Z,102346.94
2022-09-03T09:37:50.560Z,102346.28
2022-09-03T09:40:33.257Z,102340.00
2022-09-03T09:43:04.960Z,102342.22
2022-09-03T09:45:34.303Z,102334.75
2022-09-03T09:48:05.911Z,102337.34
2022-09-03T09:50:32.485Z,102341.41
2022-09-03T09:53:15.028Z,102341.94
2022-09-03T09:56:00.521Z,102344.16
2022-09-03T09:58:31.371Z,102335.41
2022-09-03T10:01:02.537Z,102336.75
2022-09-03T10:03:33.295Z,102331.78
2022-09-03T10:06:26.109Z,102332.34
2022-09-03T10:09:07.451Z,102340.66
2022-09-03T10:11:39.875Z,102336.13
2022-09-03T10:14:24.579Z,102332.50
2022-09-03T10:17:01.150Z,102338.19
2022-09-03T10:19:39.351Z,102336.38
2022-09-03T10:22:20.599Z,102334.97
2022-09-03T10:25:03.709Z,102332.72
2022-09-03T10:27:32.111Z,102334.59
2022-09-03T10:30:00.810Z,102337.00
2022-09-03T10:32:37.866Z,102333.72
2022-09-03T10:35:30.075Z,102329.78
2022-09-03T10:38:05.434Z,102325.97
2022-09-03T10:40:42.926Z,102333.34
2022-09-03T10:43:12.980Z,102335.56
2022-09-03T10:46:05.170Z,102329.06
2022-09-03T10:49:06.383Z,102327.28
2022-09-03T10:51:42.647Z,102320.34
2022-09-03T10:54:24.388Z,102307.63
2022-09-03T10:57:15.733Z,102319.53
2022-09-03T11:00:09.520Z,102313.13
2022-09-03T11:03:07.554Z,102319.78
2022-09-03T11:05:39.707Z,102313.97
2022-09-03T11:08:24.162Z,102316.56
2022-09-03T11:10:56.269Z,102324.63
2022-09-03T11:13:39.097Z,102318.03
2022-09-03T11:16:15.033Z,102319.38
2022-09-03T11:19:03.944Z,102315.16
2022-09-03T11:21:33.009Z,102313.06
2022-09-03T11:24:13.723Z,102313.19
2022-09-03T11:26:45.225Z,102310.94
2022-09-03T11:29:26.823Z,102310.22
2022-09-03T11:32:01.865Z,102307.22
2022-09-03T11:34:33.045Z,102303.38
2022-09-03T11:37:27.146Z,102310.63
2022-09-03T11:40:17.516Z,102309.31
2022-09-03T11:42:45.235Z,102306.38
2022-09-03T11:45:23.398Z,102302.75
2022-09-03T11:47:50.904Z,102306.50
2022-09-03T11:50:22.745Z,102301.22
2022-09-03T11:52:52.418Z,102302.16
2022-09-03T11:55:26.694Z,102299.97
2022-09-03T11:57:53.338Z,102297.28
2022-09-03T12:00:24.930Z,102295.63
2022-09-03T12:02:59.180Z,102294.56
2022-09-03T12:05:44.755Z,102291.78
2022-09-03T12:08:18.583Z,102287.53
2022-09-03T12:10:59.006Z,102297.22
2022-09-03T12:13:52.794Z,102293.66
2022-09-03T12:16:34.355Z,102288.19
2022-09-03T12:19:26.156Z,102286.41
2022-09-03T12:21:52.879Z,102291.81
2022-09-03T12:24:20.361Z,102289.66
2022-09-03T12:26:47.048Z,102270.63
2022-09-03T12:29:28.325Z,102282.88
2022-09-03T12:32:11.650Z,102277.50
2022-09-03T12:34:40.387Z,102279.72
2022-09-03T12:40:21.871Z,102276.22
2022-09-03T12:42:48.942Z,102270.53
2022-09-03T12:45:23.786Z,102274.38
2022-09-03T12:47:51.711Z,102285.69
2022-09-03T12:50:21.383Z,102285.06
2022-09-03T12:53:00.851Z,102268.78
2022-09-03T12:55:40.425Z,102265.84
2022-09-03T12:58:14.154Z,102269.53
2022-09-03T13:01:14.166Z,102270.16
2022-09-03T13:04:03.363Z,102267.66
2022-09-03T13:06:43.064Z,102266.19
2022-09-03T13:09:10.760Z,102273.34
2022-09-03T13:11:37.518Z,102270.50
2022-09-03T13:14:13.483Z,102264.09
2022-09-03T13:16:46.686Z,102264.28
2022-09-03T13:19:22.719Z,102259.69
2022-09-03T13:22:25.807Z,102263.41
2022-09-03T13:24:52.315Z,102251.53
2022-09-03T13:27:49.292Z,102256.53
2022-09-03T13:30:20.516Z,102242.94
2022-09-03T13:33:22.377Z,102233.94
2022-09-03T13:36:05.657Z,102244.91
2022-09-03T13:38:46.532Z,102233.66
2022-09-03T13:41:21.760Z,102240.63
2022-09-03T13:44:09.305Z,102242.84
2022-09-03T13:46:53.893Z,102238.63
2022-09-03T13:50:01.233Z,102233.31
2022-09-03T13:52:35.141Z,102238.00
2022-09-03T13:55:12.878Z,102236.84
2022-09-03T13:57:51.069Z,102234.56
2022-09-03T14:00:30.373Z,102225.78
2022-09-03T14:03:21.159Z,102227.47
2022-09-03T14:06:02.737Z,102234.00
2022-09-03T14:09:10.128Z,102222.31
2022-09-03T14:11:59.197Z,102232.00
2022-09-03T14:14:40.676Z,102236.09
2022-09-03T14:17:48.775Z,102222.63
2022-09-03T14:20:27.393Z,102221.09
2022-09-03T14:23:05.985Z,102220.63
2022-09-03T14:25:33.840Z,102217.72
2022-09-03T14:28:33.977Z,102214.59
2022-09-03T14:31:36.698Z,102216.72
2022-09-03T14:34:19.750Z,102216.94
2022-09-03T14:37:08.614Z,102211.50
2022-09-03T14:40:05.080Z,102214.97
2022-09-03T14:42:48.946Z,102204.56
2022-09-03T14:45:33.905Z,102209.53
2022-09-03T14:48:28.311Z,102207.50
2022-09-03T14:51:19.203Z,102212.59
2022-09-03T14:53:55.761Z,102203.28
2022-09-03T14:56:49.260Z,102212.97
2022-09-03T14:59:50.883Z,102207.19
2022-09-03T15:02:46.393Z,102204.72
2022-09-03T15:05:29.848Z,102211.53
2022-09-03T15:08:02.193Z,102203.53
2022-09-03T15:10:56.833Z,102210.34
2022-09-03T15:13:49.105Z,102204.13
2022-09-03T15:16:40.545Z,102204.44
2022-09-03T15:19:31.901Z,102194.53
2022-09-03T15:22:09.786Z,102198.19
2022-09-03T15:24:50.853Z,102194.09
2022-09-03T15:27:33.376Z,102203.16
2022-09-03T15:30:12.517Z,102193.59
2022-09-03T15:32:57.825Z,102200.69
2022-09-03T15:35:56.071Z,102198.09
2022-09-03T15:38:39.180Z,102198.94
2022-09-03T15:41:11.651Z,102200.31
2022-09-03T15:43:40.525Z,102197.00
2022-09-03T15:46:33.232Z,102196.69
2022-09-03T15:49:09.047Z,102197.63
2022-09-03T15:51:47.258Z,102197.63
2022-09-03T15:54:27.207Z,102195.38
2022-09-03T15:57:06.013Z,102202.22
2022-09-03T16:00:07.402Z,102211.19
2022-09-03T16:02:49.352Z,102199.75
2022-09-03T16:05:24.327Z,102209.44
2022-09-03T16:08:17.359Z,102204.72
2022-09-03T16:11:06.891Z,102213.31
2022-09-03T16:13:50.795Z,102208.00
2022-09-03T16:16:57.933Z,102214.22
2022-09-03T16:19:30.843Z,102215.63
2022-09-03T16:22:05.624Z,102213.59
2022-09-03T16:24:58.359Z,102213.00
2022-09-03T16:27:30.829Z,102212.47
2022-09-03T16:30:12.534Z,102208.63
2022-09-03T16:32:51.888Z,102205.63
2022-09-03T16:35:35.651Z,102214.00
2022-09-03T16:38:05.032Z,102220.56
2022-09-03T16:40:34.534Z,102220.19
2022-09-03T16:43:01.028Z,102209.69
2022-09-03T16:45:36.489Z,102202.97
2022-09-03T16:48:16.783Z,102210.66
2022-09-03T16:51:08.547Z,102208.16
2022-09-03T16:54:09.294Z,102210.84
2022-09-03T16:56:51.150Z,102208.94
2022-09-03T16:59:50.743Z,102202.22
2022-09-03T17:02:41.535Z,102204.31
2022-09-03T17:05:48.212Z,102204.84
2022-09-03T17:08:59.924Z,102207.06
2022-09-03T17:11:43.238Z,102210.69
2022-09-03T17:14:47.514Z,102204.69
2022-09-03T17:17:32.556Z,102205.72
2022-09-03T17:20:20.622Z,102206.25
2022-09-03T17:23:09.712Z,102206.78
2022-09-03T17:25:47.872Z,102209.38
2022-09-03T17:28:53.616Z,102202.66
2022-09-03T17:31:40.679Z,102211.72
2022-09-03T17:34:16.179Z,102209.44
2022-09-03T17:37:08.288Z,102210.34
2022-09-03T17:39:54.957Z,102219.28
2022-09-03T17:42:22.174Z,102217.63
2022-09-03T17:45:07.088Z,102217.94
2022-09-03T17:48:00.166Z,102218.78
2022-09-03T17:50:33.773Z,102221.41
2022-09-03T17:53:12.261Z,102223.66
2022-09-03T17:55:44.221Z,102220.44
2022-09-03T17:58:21.955Z,102223.16
2022-09-03T18:01:03.076Z,102226.56
2022-09-03T18:04:04.519Z,102229.06
2022-09-03T18:06:55.802Z,102233.53
2022-09-03T18:09:32.756Z,102234.00
2022-09-03T18:12:05.488Z,102231.94
2022-09-03T18:14:49.320Z,102237.59
2022-09-03T18:17:31.401Z,102235.34
2022-09-03T18:20:25.034Z,102232.22
2022-09-03T18:23:30.483Z,102231.72
2022-09-03T18:26:21.201Z,102228.63
2022-09-03T18:29:17.310Z,102234.16
2022-09-03T18:32:03.787Z,102230.75
2022-09-03T18:34:52.821Z,102235.56
2022-09-03T18:37:43.029Z,102227.66
2022-09-03T18:40:39.432Z,102229.38
2022-09-03T18:44:00.300Z,102235.28
2022-09-03T18:50:48.152Z,102244.38
2022-09-03T18:53:47.358Z,102251.69
2022-09-03T18:56:47.240Z,102247.34
2022-09-03T19:00:05.762Z,102243.34
2022-09-03T19:03:21.603Z,102254.50
2022-09-03T19:06:34.722Z,102251.59
2022-09-03T19:09:32.332Z,102247.94
2022-09-03T19:12:36.459Z,102234.59
2022-09-03T19:15:46.117Z,102245.41
2022-09-03T19:18:52.778Z,102253.41
2022-09-03T19:22:06.894Z,102250.38
2022-09-03T19:24:52.239Z,102249.97
2022-09-03T19:28:00.309Z,102251.03
2022-09-03T19:31:20.435Z,102253.91
2022-09-03T19:34:37.094Z,102259.53
2022-09-03T19:37:32.244Z,102257.78
2022-09-03T19:40:28.355Z,102257.88
2022-09-03T19:43:45.349Z,102245.81
2022-09-03T19:46:46.743Z,102253.63
2022-09-03T19:50:15.045Z,102258.13
2022-09-03T19:53:14.598Z,102254.19
2022-09-03T19:56:07.645Z,102256.03
2022-09-03T19:58:57.365Z,102267.69
2022-09-03T20:01:48.831Z,102271.13
2022-09-03T20:04:35.270Z,102269.59
2022-09-03T20:07:25.561Z,102269.75
2022-09-03T20:10:20.065Z,102277.31
2022-09-03T20:13:04.155Z,102277.38
2022-09-03T20:16:08.272Z,102280.81
2022-09-03T20:18:59.243Z,102281.81
2022-09-03T20:21:47.733Z,102281.47
2022-09-03T20:24:40.298Z,102283.59
2022-09-03T20:27:19.140Z,102286.13
2022-09-03T20:30:05.956Z,102284.63
2022-09-03T20:32:38.634Z,102282.34
2022-09-03T20:35:33.306Z,102289.78
2022-09-03T20:38:15.245Z,102285.84
2022-09-03T20:41:17.864Z,102291.66
2022-09-03T20:44:03.339Z,102283.84
2022-09-03T20:46:38.795Z,102289.25
2022-09-03T20:49:20.237Z,102297.00
2022-09-03T20:52:18.998Z,102287.84
2022-09-03T20:55:20.582Z,102288.19
2022-09-03T20:58:20.168Z,102288.09
2022-09-03T21:00:50.235Z,102290.19
2022-09-03T21:03:37.275Z,102289.69
2022-09-03T21:06:33.647Z,102296.75
2022-09-03T21:09:16.760Z,102294.16
2022-09-03T21:11:56.660Z,102304.47
2022-09-03T21:14:43.406Z,102295.84
2022-09-03T21:17:28.586Z,102294.84
2022-09-03T21:20:28.508Z,102292.78
2022-09-03T21:23:16.609Z,102290.75
2022-09-03T21:25:51.239Z,102300.72
2022-09-03T21:28:38.545Z,102293.75
2022-09-03T21:31:23.577Z,102295.25
2022-09-03T21:33:55.675Z,102300.56
2022-09-03T21:36:26.060Z,102296.91
2022-09-03T21:39:28.004Z,102296.84
2022-09-03T21:42:06.290Z,102303.56
2022-09-03T21:44:51.144Z,102293.59
2022-09-03T21:47:21.395Z,102300.31
2022-09-03T21:49:50.749Z,102284.44
2022-09-03T21:52:23.274Z,102291.53
2022-09-03T21:54:52.037Z,102291.94
2022-09-03T21:58:00.742Z,102288.13
2022-09-03T22:00:33.510Z,102290.19
2022-09-03T22:03:01.026Z,102292.00
2022-09-03T22:05:37.323Z,102295.84
2022-09-03T22:08:27.149Z,102293.78
2022-09-03T22:11:12.507Z,102298.16
2022-09-03T22:14:11.122Z,102300.47
2022-09-03T22:16:45.256Z,102295.81
2022-09-03T22:19:12.171Z,102296.22
2022-09-03T22:21:52.719Z,102295.59
2022-09-03T22:24:34.400Z,102297.22
2022-09-03T22:27:14.394Z,102299.72
2022-09-03T22:30:02.788Z,102297.41
2022-09-03T22:32:50.725Z,102289.75
2022-09-03T22:35:43.942Z,102293.91
2022-09-03T22:38:30.720Z,102285.56
2022-09-03T22:41:27.967Z,102288.03
2022-09-03T22:44:32.152Z,102293.66
2022-09-03T22:47:15.521Z,102285.94
2022-09-03T22:49:57.401Z,102284.53
2022-09-03T22:52:47.354Z,102288.03
2022-09-03T22:55:25.357Z,102287.88
2022-09-03T22:58:03.389Z,102291.00
2022-09-03T23:00:34.098Z,102286.75
2022-09-03T23:03:08.548Z,102295.56
2022-09-03T23:05:44.007Z,102285.94
2022-09-03T23:08:36.923Z,102286.47
2022-09-03T23:11:14.768Z,102288.97
2022-09-03T23:13:46.834Z,102290.78
2022-09-03T23:16:30.794Z,102301.25
2022-09-03T23:19:01.798Z,102293.06
2022-09-03T23:21:39.243Z,102297.44
2022-09-03T23:24:12.047Z,102295.72
2022-09-03T23:26:44.379Z,102289.41
2022-09-03T23:29:34.661Z,102295.47
2022-09-03T23:32:06.024Z,102304.72
2022-09-03T23:34:33.293Z,102308.16
2022-09-03T23:40:10.108Z,102315.78
2022-09-03T23:42:54.325Z,102314.94
2022-09-03T23:45:43.179Z,102316.31
2022-09-03T23:48:43.170Z,102309.84
2022-09-03T23:51:46.582Z,102307.97
2022-09-03T23:54:23.267Z,102311.69
2022-09-03T23:57:05.415Z,102309.13
